Portada
METAR-TAF:

METAR-TAF

Aeroports :

Batman, Turquia

latitud: 37-52N, longitud: 041-10E, altitud: 540 m

Observació

L'informe es va fer fa 1 hora i 24 minuts, a les 04:20 UTC
Vent 3 kt del Sud/Sud-Oest
Temperatura 13°C
Humitat 51%
Pressió 1012 hPa
Visibilitat 10 km o més
sense núvols per sota de 1500 mi sense presència de cumulonimbus.

METAR: LTCJ 290420Z 21003KT CAVOK 13/03 Q1012 NOSIG RMK RWY20 VRB02KT SKC

Hora: 08:44 (05:44 UTC)

Pronòstic

L'informe es va fer fa 1 hora i 4 minuts, a les 04:40 UTC
Pronòstic vàlid del 29 a les 06 UTC al 30 a les 06 UTC
Vent 2 kt amb direcció variable
Visibilitat 10 km o més
sense núvols per sota de 1500 mi sense presència de cumulonimbus.

TAF: LTCJ 290440Z 2906/3006 VRB02KT CAVOK

Observacions i pronòstics meteorològics de més de 4000 aeroports (METAR i TAF).

Les estacions disponibles són els punts grocs i vermells al mapa.

Posi el ratolí al punt desitjat per veure el nom de l'estació.

Feu clic per veure les observacions i els pronòstics meteorològics.

Per canviar el mapa: feu clic els botons verds amb una creu de color negre per apropar; al botó verd amb un guió per allunyar la imatge; o en les fletxes verdes per a mapes adjacents.


METAR-TAF: